sensor_id;sensor_type;location;lat;lon;timestamp;P1;durP1;ratioP1;P2;durP2;ratioP2
9667;SDS011;4872;48.316;10.650;2023-09-12T04:10:07;12.60;;;11.33;;
9667;SDS011;4872;48.316;10.650;2023-09-12T04:12:34;13.70;;;11.67;;
9667;SDS011;4872;48.316;10.650;2023-09-12T04:15:01;13.03;;;11.73;;
9667;SDS011;4872;48.316;10.650;2023-09-12T04:17:28;13.83;;;11.80;;
9667;SDS011;4872;48.316;10.650;2023-09-12T04:19:54;13.30;;;11.93;;
9667;SDS011;4872;48.316;10.650;2023-09-12T04:22:21;12.73;;;11.43;;
9667;SDS011;4872;48.316;10.650;2023-09-12T04:24:48;12.83;;;11.50;;
9667;SDS011;4872;48.316;10.650;2023-09-12T04:27:16;14.03;;;11.90;;
9667;SDS011;4872;48.316;10.650;2023-09-12T04:29:43;13.33;;;11.97;;
9667;SDS011;4872;48.316;10.650;2023-09-12T04:32:09;14.77;;;12.53;;
9667;SDS011;4872;48.316;10.650;2023-09-12T04:34:37;15.83;;;12.90;;
9667;SDS011;4872;48.316;10.650;2023-09-12T04:37:04;15.97;;;12.53;;
9667;SDS011;4872;48.316;10.650;2023-09-12T04:39:30;15.90;;;13.20;;
9667;SDS011;4872;48.316;10.650;2023-09-12T04:41:57;16.50;;;13.27;;
9667;SDS011;4872;48.316;10.650;2023-09-12T04:44:25;15.47;;;13.57;;
9667;SDS011;4872;48.316;10.650;2023-09-12T04:46:52;18.33;;;14.07;;
9667;SDS011;4872;48.316;10.650;2023-09-12T04:49:19;16.50;;;12.87;;
9667;SDS011;4872;48.316;10.650;2023-09-12T04:51:45;14.93;;;13.43;;
9667;SDS011;4872;48.316;10.650;2023-09-12T04:54:12;16.10;;;13.80;;
9667;SDS011;4872;48.316;10.650;2023-09-12T04:56:39;16.57;;;13.97;;
9667;SDS011;4872;48.316;10.650;2023-09-12T04:59:05;17.97;;;16.10;;
9667;SDS011;4872;48.316;10.650;2023-09-12T05:01:34;17.33;;;13.97;;
9667;SDS011;4872;48.316;10.650;2023-09-12T05:04:01;15.10;;;13.50;;
9667;SDS011;4872;48.316;10.650;2023-09-12T05:06:28;15.10;;;13.60;;
9667;SDS011;4872;48.316;10.650;2023-09-12T05:08:54;16.27;;;14.37;;
9667;SDS011;4872;48.316;10.650;2023-09-12T05:11:21;17.00;;;13.03;;
9667;SDS011;4872;48.316;10.650;2023-09-12T05:13:49;14.97;;;13.43;;
9667;SDS011;4872;48.316;10.650;2023-09-12T05:16:15;15.87;;;12.20;;
9667;SDS011;4872;48.316;10.650;2023-09-12T05:18:44;15.17;;;12.00;;
9667;SDS011;4872;48.316;10.650;2023-09-12T05:21:10;14.17;;;12.60;;
9667;SDS011;4872;48.316;10.650;2023-09-12T05:23:37;17.50;;;12.07;;
9667;SDS011;4872;48.316;10.650;2023-09-12T05:26:04;14.10;;;12.60;;
9667;SDS011;4872;48.316;10.650;2023-09-12T05:28:32;15.80;;;13.13;;
9667;SDS011;4872;48.316;10.650;2023-09-12T05:30:59;15.03;;;12.70;;
9667;SDS011;4872;48.316;10.650;2023-09-12T05:33:27;13.13;;;11.70;;
9667;SDS011;4872;48.316;10.650;2023-09-12T05:35:55;14.37;;;11.53;;
9667;SDS011;4872;48.316;10.650;2023-09-12T05:38:22;12.53;;;11.27;;
9667;SDS011;4872;48.316;10.650;2023-09-12T05:40:50;14.07;;;11.97;;
9667;SDS011;4872;48.316;10.650;2023-09-12T05:43:17;13.73;;;11.80;;
9667;SDS011;4872;48.316;10.650;2023-09-12T05:45:43;13.87;;;12.47;;
9667;SDS011;4872;48.316;10.650;2023-09-12T05:48:10;13.33;;;11.33;;
9667;SDS011;4872;48.316;10.650;2023-09-12T05:50:37;15.03;;;11.97;;
9667;SDS011;4872;48.316;10.650;2023-09-12T05:53:05;15.83;;;13.53;;
9667;SDS011;4872;48.316;10.650;2023-09-12T05:55:31;14.63;;;12.57;;
9667;SDS011;4872;48.316;10.650;2023-09-12T05:57:58;14.87;;;13.27;;
9667;SDS011;4872;48.316;10.650;2023-09-12T06:00:25;15.63;;;14.03;;
9667;SDS011;4872;48.316;10.650;2023-09-12T06:02:52;16.73;;;14.63;;
9667;SDS011;4872;48.316;10.650;2023-09-12T06:05:18;17.03;;;15.20;;
9667;SDS011;4872;48.316;10.650;2023-09-12T06:07:45;14.80;;;13.20;;
9667;SDS011;4872;48.316;10.650;2023-09-12T06:10:13;15.63;;;14.03;;
9667;SDS011;4872;48.316;10.650;2023-09-12T06:12:40;15.90;;;14.30;;
9667;SDS011;4872;48.316;10.650;2023-09-12T06:15:06;15.80;;;14.27;;
9667;SDS011;4872;48.316;10.650;2023-09-12T06:17:33;16.47;;;14.80;;
9667;SDS011;4872;48.316;10.650;2023-09-12T06:20:00;15.03;;;13.53;;
9667;SDS011;4872;48.316;10.650;2023-09-12T06:22:28;16.60;;;14.50;;
9667;SDS011;4872;48.316;10.650;2023-09-12T06:24:55;17.07;;;14.60;;
9667;SDS011;4872;48.316;10.650;2023-09-12T06:27:23;16.33;;;14.73;;
9667;SDS011;4872;48.316;10.650;2023-09-12T06:29:50;16.53;;;14.90;;
9667;SDS011;4872;48.316;10.650;2023-09-12T06:32:17;17.63;;;15.50;;
9667;SDS011;4872;48.316;10.650;2023-09-12T06:34:44;17.83;;;15.80;;
9667;SDS011;4872;48.316;10.650;2023-09-12T06:37:13;18.57;;;16.00;;
9667;SDS011;4872;48.316;10.650;2023-09-12T06:39:40;17.80;;;15.80;;
9667;SDS011;4872;48.316;10.650;2023-09-12T06:42:07;18.63;;;16.37;;
9667;SDS011;4872;48.316;10.650;2023-09-12T06:44:36;17.90;;;16.03;;
9667;SDS011;4872;48.316;10.650;2023-09-12T06:47:03;17.10;;;15.30;;
9667;SDS011;4872;48.316;10.650;2023-09-12T06:49:30;16.67;;;15.03;;
9667;SDS011;4872;48.316;10.650;2023-09-12T06:51:58;16.83;;;14.43;;
9667;SDS011;4872;48.316;10.650;2023-09-12T06:54:24;17.20;;;15.50;;
9667;SDS011;4872;48.316;10.650;2023-09-12T06:56:51;15.57;;;13.53;;
9667;SDS011;4872;48.316;10.650;2023-09-12T06:59:18;17.63;;;14.33;;
9667;SDS011;4872;48.316;10.650;2023-09-12T07:01:46;15.67;;;14.07;;
9667;SDS011;4872;48.316;10.650;2023-09-12T07:04:13;16.80;;;15.00;;
9667;SDS011;4872;48.316;10.650;2023-09-12T07:06:39;17.33;;;15.53;;
9667;SDS011;4872;48.316;10.650;2023-09-12T07:09:07;15.43;;;13.83;;
9667;SDS011;4872;48.316;10.650;2023-09-12T07:11:33;16.70;;;14.90;;
9667;SDS011;4872;48.316;10.650;2023-09-12T07:14:00;16.23;;;14.27;;
9667;SDS011;4872;48.316;10.650;2023-09-12T07:16:28;19.17;;;14.73;;
9667;SDS011;4872;48.316;10.650;2023-09-12T07:18:58;16.17;;;14.57;;
9667;SDS011;4872;48.316;10.650;2023-09-12T07:21:25;15.63;;;14.13;;
9667;SDS011;4872;48.316;10.650;2023-09-12T07:23:53;16.43;;;14.17;;
9667;SDS011;4872;48.316;10.650;2023-09-12T07:26:20;14.50;;;13.00;;
9667;SDS011;4872;48.316;10.650;2023-09-12T07:28:46;19.87;;;13.07;;
9667;SDS011;4872;48.316;10.650;2023-09-12T07:31:13;15.43;;;13.30;;
9667;SDS011;4872;48.316;10.650;2023-09-12T07:33:40;14.80;;;13.23;;
9667;SDS011;4872;48.316;10.650;2023-09-12T07:36:08;14.77;;;13.33;;
9667;SDS011;4872;48.316;10.650;2023-09-12T07:38:36;15.83;;;14.23;;
9667;SDS011;4872;48.316;10.650;2023-09-12T07:41:03;16.07;;;14.57;;
9667;SDS011;4872;48.316;10.650;2023-09-12T07:43:30;15.97;;;14.47;;
9667;SDS011;4872;48.316;10.650;2023-09-12T07:45:57;14.77;;;13.37;;
9667;SDS011;4872;48.316;10.650;2023-09-12T07:48:24;16.50;;;14.50;;
9667;SDS011;4872;48.316;10.650;2023-09-12T07:50:52;14.73;;;13.20;;
9667;SDS011;4872;48.316;10.650;2023-09-12T07:53:21;14.67;;;13.27;;
9667;SDS011;4872;48.316;10.650;2023-09-12T07:55:48;15.63;;;13.03;;
9667;SDS011;4872;48.316;10.650;2023-09-12T07:58:16;14.97;;;13.37;;
9667;SDS011;4872;48.316;10.650;2023-09-12T08:00:44;14.40;;;13.00;;
9667;SDS011;4872;48.316;10.650;2023-09-12T08:03:12;14.43;;;13.10;;
9667;SDS011;4872;48.316;10.650;2023-09-12T08:05:38;17.60;;;13.07;;
9667;SDS011;4872;48.316;10.650;2023-09-12T08:08:05;14.97;;;13.37;;
9667;SDS011;4872;48.316;10.650;2023-09-12T08:10:34;14.50;;;13.13;;
9667;SDS011;4872;48.316;10.650;2023-09-12T08:13:00;15.40;;;13.40;;
9667;SDS011;4872;48.316;10.650;2023-09-12T08:15:27;15.07;;;13.67;;
9667;SDS011;4872;48.316;10.650;2023-09-12T08:17:54;14.40;;;13.10;;
9667;SDS011;4872;48.316;10.650;2023-09-12T08:20:21;13.70;;;12.30;;
9667;SDS011;4872;48.316;10.650;2023-09-12T08:22:47;14.03;;;12.53;;
9667;SDS011;4872;48.316;10.650;2023-09-12T08:25:14;13.07;;;11.70;;
9667;SDS011;4872;48.316;10.650;2023-09-12T08:27:42;13.20;;;11.97;;
9667;SDS011;4872;48.316;10.650;2023-09-12T08:30:10;15.07;;;13.50;;
9667;SDS011;4872;48.316;10.650;2023-09-12T08:32:38;13.17;;;11.90;;
9667;SDS011;4872;48.316;10.650;2023-09-12T08:35:08;14.50;;;11.67;;
9667;SDS011;4872;48.316;10.650;2023-09-12T08:37:37;14.07;;;12.63;;
9667;SDS011;4872;48.316;10.650;2023-09-12T08:40:05;12.97;;;11.53;;
9667;SDS011;4872;48.316;10.650;2023-09-12T08:42:35;13.27;;;11.87;;
9667;SDS011;4872;48.316;10.650;2023-09-12T08:45:08;13.13;;;11.90;;
9667;SDS011;4872;48.316;10.650;2023-09-12T08:47:40;11.60;;;10.50;;
9667;SDS011;4872;48.316;10.650;2023-09-12T08:50:10;14.50;;;12.27;;
9667;SDS011;4872;48.316;10.650;2023-09-12T08:52:38;14.40;;;13.07;;
9667;SDS011;4872;48.316;10.650;2023-09-12T08:55:06;13.80;;;12.47;;
9667;SDS011;4872;48.316;10.650;2023-09-12T08:57:33;12.10;;;11.00;;
9667;SDS011;4872;48.316;10.650;2023-09-12T09:00:03;13.73;;;11.77;;
9667;SDS011;4872;48.316;10.650;2023-09-12T09:02:34;12.93;;;11.23;;
9667;SDS011;4872;48.316;10.650;2023-09-12T09:05:03;12.80;;;11.47;;
9667;SDS011;4872;48.316;10.650;2023-09-12T09:07:31;13.87;;;12.47;;
9667;SDS011;4872;48.316;10.650;2023-09-12T09:10:00;12.83;;;11.53;;
9667;SDS011;4872;48.316;10.650;2023-09-12T09:12:30;13.40;;;12.00;;
9667;SDS011;4872;48.316;10.650;2023-09-12T09:14:56;14.50;;;11.93;;
9667;SDS011;4872;48.316;10.650;2023-09-12T09:17:24;11.67;;;10.67;;
9667;SDS011;4872;48.316;10.650;2023-09-12T09:19:53;12.43;;;11.20;;
9667;SDS011;4872;48.316;10.650;2023-09-12T09:22:20;12.33;;;11.13;;
9667;SDS011;4872;48.316;10.650;2023-09-12T09:24:48;11.20;;;9.90;;
9667;SDS011;4872;48.316;10.650;2023-09-12T09:27:27;10.63;;;9.53;;
9667;SDS011;4872;48.316;10.650;2023-09-12T09:29:59;10.93;;;9.27;;
9667;SDS011;4872;48.316;10.650;2023-09-12T09:32:28;11.53;;;10.33;;
9667;SDS011;4872;48.316;10.650;2023-09-12T09:34:56;11.60;;;10.50;;
9667;SDS011;4872;48.316;10.650;2023-09-12T09:37:23;11.87;;;10.67;;
9667;SDS011;4872;48.316;10.650;2023-09-12T09:39:50;13.67;;;10.97;;
9667;SDS011;4872;48.316;10.650;2023-09-12T09:42:17;10.87;;;9.70;;
9667;SDS011;4872;48.316;10.650;2023-09-12T09:44:44;10.77;;;9.67;;
9667;SDS011;4872;48.316;10.650;2023-09-12T09:47:11;11.77;;;10.50;;
9667;SDS011;4872;48.316;10.650;2023-09-12T09:49:38;11.83;;;10.63;;
9667;SDS011;4872;48.316;10.650;2023-09-12T09:52:06;11.80;;;10.63;;
9667;SDS011;4872;48.316;10.650;2023-09-12T09:54:33;10.90;;;9.90;;
9667;SDS011;4872;48.316;10.650;2023-09-12T09:57:00;10.67;;;9.50;;
9667;SDS011;4872;48.316;10.650;2023-09-12T09:59:27;11.83;;;10.40;;
9667;SDS011;4872;48.316;10.650;2023-09-12T10:01:55;11.03;;;9.97;;
9667;SDS011;4872;48.316;10.650;2023-09-12T10:04:22;12.03;;;10.40;;
9667;SDS011;4872;48.316;10.650;2023-09-12T10:06:49;11.13;;;9.93;;
9667;SDS011;4872;48.316;10.650;2023-09-12T10:09:18;10.43;;;9.43;;
9667;SDS011;4872;48.316;10.650;2023-09-12T10:11:51;11.03;;;9.93;;
9667;SDS011;4872;48.316;10.650;2023-09-12T10:14:21;9.87;;;9.00;;
9667;SDS011;4872;48.316;10.650;2023-09-12T10:16:50;11.40;;;10.17;;
9667;SDS011;4872;48.316;10.650;2023-09-12T10:19:18;9.97;;;9.17;;
9667;SDS011;4872;48.316;10.650;2023-09-12T10:21:49;10.20;;;9.13;;
9667;SDS011;4872;48.316;10.650;2023-09-12T10:24:21;10.30;;;9.30;;
9667;SDS011;4872;48.316;10.650;2023-09-12T10:26:50;9.93;;;9.10;;
9667;SDS011;4872;48.316;10.650;2023-09-12T10:29:18;9.53;;;8.53;;
9667;SDS011;4872;48.316;10.650;2023-09-12T10:31:44;9.83;;;8.80;;
9667;SDS011;4872;48.316;10.650;2023-09-12T10:34:12;9.60;;;8.70;;
9667;SDS011;4872;48.316;10.650;2023-09-12T10:36:41;9.07;;;8.17;;
9667;SDS011;4872;48.316;10.650;2023-09-12T10:39:09;8.77;;;8.03;;
9667;SDS011;4872;48.316;10.650;2023-09-12T10:41:40;8.83;;;7.90;;
9667;SDS011;4872;48.316;10.650;2023-09-12T10:44:09;9.13;;;8.00;;
9667;SDS011;4872;48.316;10.650;2023-09-12T10:46:37;11.63;;;8.03;;
9667;SDS011;4872;48.316;10.650;2023-09-12T10:49:06;8.10;;;7.40;;
9667;SDS011;4872;48.316;10.650;2023-09-12T10:51:34;8.83;;;7.57;;
9667;SDS011;4872;48.316;10.650;2023-09-12T10:54:04;7.20;;;6.60;;
9667;SDS011;4872;48.316;10.650;2023-09-12T10:56:32;8.57;;;7.57;;
9667;SDS011;4872;48.316;10.650;2023-09-12T10:59:10;7.40;;;6.73;;
9667;SDS011;4872;48.316;10.650;2023-09-12T11:01:39;7.53;;;6.77;;
9667;SDS011;4872;48.316;10.650;2023-09-12T11:07:06;7.40;;;6.70;;
9667;SDS011;4872;48.316;10.650;2023-09-12T11:10:17;10.43;;;7.97;;
9667;SDS011;4872;48.316;10.650;2023-09-12T11:12:46;8.13;;;7.33;;
9667;SDS011;4872;48.316;10.650;2023-09-12T11:15:14;7.70;;;7.00;;
9667;SDS011;4872;48.316;10.650;2023-09-12T11:17:42;8.37;;;7.67;;
9667;SDS011;4872;48.316;10.650;2023-09-12T11:20:09;8.33;;;7.50;;
9667;SDS011;4872;48.316;10.650;2023-09-12T11:22:39;9.47;;;7.97;;
9667;SDS011;4872;48.316;10.650;2023-09-12T11:25:15;7.67;;;6.90;;
9667;SDS011;4872;48.316;10.650;2023-09-12T11:27:44;8.40;;;7.53;;
9667;SDS011;4872;48.316;10.650;2023-09-12T11:30:12;7.87;;;7.07;;
9667;SDS011;4872;48.316;10.650;2023-09-12T11:32:39;8.87;;;8.03;;
9667;SDS011;4872;48.316;10.650;2023-09-12T11:35:06;9.23;;;8.23;;
9667;SDS011;4872;48.316;10.650;2023-09-12T11:37:34;8.17;;;7.43;;
9667;SDS011;4872;48.316;10.650;2023-09-12T11:40:04;7.80;;;7.10;;
9667;SDS011;4872;48.316;10.650;2023-09-12T11:42:42;8.07;;;6.60;;
9667;SDS011;4872;48.316;10.650;2023-09-12T11:45:11;7.60;;;6.40;;
9667;SDS011;4872;48.316;10.650;2023-09-12T11:47:39;7.50;;;6.80;;
9667;SDS011;4872;48.316;10.650;2023-09-12T11:50:07;8.30;;;6.97;;
9667;SDS011;4872;48.316;10.650;2023-09-12T11:52:36;7.70;;;6.37;;
9667;SDS011;4872;48.316;10.650;2023-09-12T11:55:05;9.27;;;6.63;;
9667;SDS011;4872;48.316;10.650;2023-09-12T11:57:32;10.60;;;7.10;;
9667;SDS011;4872;48.316;10.650;2023-09-12T11:59:59;7.37;;;6.73;;
9667;SDS011;4872;48.316;10.650;2023-09-12T12:02:33;7.53;;;6.83;;
9667;SDS011;4872;48.316;10.650;2023-09-12T12:05:00;7.83;;;7.13;;
9667;SDS011;4872;48.316;10.650;2023-09-12T12:07:29;7.60;;;6.57;;
9667;SDS011;4872;48.316;10.650;2023-09-12T12:09:56;7.63;;;6.93;;
9667;SDS011;4872;48.316;10.650;2023-09-12T12:12:24;8.10;;;7.30;;
9667;SDS011;4872;48.316;10.650;2023-09-12T12:14:51;7.90;;;7.18;;
9667;SDS011;4872;48.316;10.650;2023-09-12T12:17:17;8.10;;;7.30;;
9667;SDS011;4872;48.316;10.650;2023-09-12T12:19:45;8.32;;;6.95;;
9667;SDS011;4872;48.316;10.650;2023-09-12T12:22:12;7.88;;;7.07;;
9667;SDS011;4872;48.316;10.650;2023-09-12T12:24:39;7.85;;;7.05;;
9667;SDS011;4872;48.316;10.650;2023-09-12T12:27:07;8.90;;;7.35;;
9667;SDS011;4872;48.316;10.650;2023-09-12T12:29:37;7.60;;;6.90;;
9667;SDS011;4872;48.316;10.650;2023-09-12T12:32:05;7.47;;;6.40;;
9667;SDS011;4872;48.316;10.650;2023-09-12T12:34:34;7.43;;;6.78;;
9667;SDS011;4872;48.316;10.650;2023-09-12T12:37:00;8.02;;;7.22;;
9667;SDS011;4872;48.316;10.650;2023-09-12T12:39:27;7.85;;;6.68;;
9667;SDS011;4872;48.316;10.650;2023-09-12T12:41:54;7.22;;;6.53;;
9667;SDS011;4872;48.316;10.650;2023-09-12T12:44:21;8.60;;;6.75;;
9667;SDS011;4872;48.316;10.650;2023-09-12T12:46:50;7.93;;;6.93;;
9667;SDS011;4872;48.316;10.650;2023-09-12T12:49:17;7.88;;;7.18;;
9667;SDS011;4872;48.316;10.650;2023-09-12T12:51:44;8.25;;;6.22;;
9667;SDS011;4872;48.316;10.650;2023-09-12T12:54:11;6.10;;;5.50;;
9667;SDS011;4872;48.316;10.650;2023-09-12T12:56:39;7.45;;;6.20;;
9667;SDS011;4872;48.316;10.650;2023-09-12T12:59:06;8.63;;;6.57;;
9667;SDS011;4872;48.316;10.650;2023-09-12T13:01:34;6.43;;;5.85;;
9667;SDS011;4872;48.316;10.650;2023-09-12T13:04:03;7.00;;;6.35;;
9667;SDS011;4872;48.316;10.650;2023-09-12T13:06:31;5.72;;;5.15;;
9667;SDS011;4872;48.316;10.650;2023-09-12T13:09:01;6.13;;;5.63;;
9667;SDS011;4872;48.316;10.650;2023-09-12T13:11:30;6.32;;;5.75;;
9667;SDS011;4872;48.316;10.650;2023-09-12T13:13:58;6.18;;;5.57;;
9667;SDS011;4872;48.316;10.650;2023-09-12T13:16:25;7.10;;;5.85;;
9667;SDS011;4872;48.316;10.650;2023-09-12T13:18:51;7.07;;;5.95;;
9667;SDS011;4872;48.316;10.650;2023-09-12T13:21:20;8.95;;;6.25;;
9667;SDS011;4872;48.316;10.650;2023-09-12T13:23:46;6.72;;;5.97;;
9667;SDS011;4872;48.316;10.650;2023-09-12T13:26:13;9.05;;;6.50;;
9667;SDS011;4872;48.316;10.650;2023-09-12T13:28:40;8.52;;;7.63;;
9667;SDS011;4872;48.316;10.650;2023-09-12T13:31:07;7.15;;;6.25;;
9667;SDS011;4872;48.316;10.650;2023-09-12T13:33:33;7.40;;;6.45;;
9667;SDS011;4872;48.316;10.650;2023-09-12T13:36:00;6.93;;;6.25;;
9667;SDS011;4872;48.316;10.650;2023-09-12T13:38:28;5.85;;;5.20;;
9667;SDS011;4872;48.316;10.650;2023-09-12T13:40:55;6.53;;;5.80;;
9667;SDS011;4872;48.316;10.650;2023-09-12T13:43:22;6.85;;;6.15;;
9667;SDS011;4872;48.316;10.650;2023-09-12T13:45:49;7.07;;;6.35;;
9667;SDS011;4872;48.316;10.650;2023-09-12T13:48:15;8.20;;;6.00;;
9667;SDS011;4872;48.316;10.650;2023-09-12T13:50:43;6.15;;;5.65;;
9667;SDS011;4872;48.316;10.650;2023-09-12T13:53:10;7.38;;;6.32;;
9667;SDS011;4872;48.316;10.650;2023-09-12T13:55:38;6.32;;;5.72;;
9667;SDS011;4872;48.316;10.650;2023-09-12T13:58:05;6.45;;;5.85;;
9667;SDS011;4872;48.316;10.650;2023-09-12T14:00:32;6.32;;;5.68;;
9667;SDS011;4872;48.316;10.650;2023-09-12T14:03:00;6.18;;;5.57;;
9667;SDS011;4872;48.316;10.650;2023-09-12T14:05:27;7.30;;;5.57;;
9667;SDS011;4872;48.316;10.650;2023-09-12T14:07:54;6.78;;;6.07;;
9667;SDS011;4872;48.316;10.650;2023-09-12T14:10:21;6.47;;;5.88;;
9667;SDS011;4872;48.316;10.650;2023-09-12T14:12:49;6.43;;;5.35;;
9667;SDS011;4872;48.316;10.650;2023-09-12T14:15:16;7.63;;;5.63;;
9667;SDS011;4872;48.316;10.650;2023-09-12T14:17:42;7.22;;;5.50;;
9667;SDS011;4872;48.316;10.650;2023-09-12T14:20:10;5.78;;;4.75;;
9667;SDS011;4872;48.316;10.650;2023-09-12T14:22:40;7.85;;;5.25;;
9667;SDS011;4872;48.316;10.650;2023-09-12T14:25:08;6.53;;;5.00;;
9667;SDS011;4872;48.316;10.650;2023-09-12T14:27:39;7.72;;;5.35;;
9667;SDS011;4872;48.316;10.650;2023-09-12T14:30:09;7.85;;;4.72;;
9667;SDS011;4872;48.316;10.650;2023-09-12T14:32:39;5.95;;;5.32;;
9667;SDS011;4872;48.316;10.650;2023-09-12T14:35:06;5.70;;;5.10;;
9667;SDS011;4872;48.316;10.650;2023-09-12T14:37:33;6.47;;;5.35;;
9667;SDS011;4872;48.316;10.650;2023-09-12T14:40:02;5.70;;;5.10;;
9667;SDS011;4872;48.316;10.650;2023-09-12T14:42:30;6.85;;;5.40;;
9667;SDS011;4872;48.316;10.650;2023-09-12T14:44:57;6.60;;;5.95;;
9667;SDS011;4872;48.316;10.650;2023-09-12T14:47:25;6.07;;;5.47;;
9667;SDS011;4872;48.316;10.650;2023-09-12T14:49:55;5.82;;;5.28;;
9667;SDS011;4872;48.316;10.650;2023-09-12T14:52:22;7.70;;;5.60;;
9667;SDS011;4872;48.316;10.650;2023-09-12T14:54:51;5.70;;;5.13;;
9667;SDS011;4872;48.316;10.650;2023-09-12T14:57:17;6.25;;;5.65;;
9667;SDS011;4872;48.316;10.650;2023-09-12T14:59:45;6.70;;;5.93;;
9667;SDS011;4872;48.316;10.650;2023-09-12T15:02:11;5.72;;;5.22;;
9667;SDS011;4872;48.316;10.650;2023-09-12T15:04:39;7.35;;;6.00;;
9667;SDS011;4872;48.316;10.650;2023-09-12T15:07:06;6.97;;;5.68;;
9667;SDS011;4872;48.316;10.650;2023-09-12T15:09:33;6.93;;;6.18;;
9667;SDS011;4872;48.316;10.650;2023-09-12T15:12:00;7.93;;;5.88;;
9667;SDS011;4872;48.316;10.650;2023-09-12T15:14:26;7.05;;;5.43;;
9667;SDS011;4872;48.316;10.650;2023-09-12T15:16:53;6.55;;;5.38;;
9667;SDS011;4872;48.316;10.650;2023-09-12T15:19:22;6.60;;;6.00;;
9667;SDS011;4872;48.316;10.650;2023-09-12T15:21:50;5.95;;;5.35;;
9667;SDS011;4872;48.316;10.650;2023-09-12T15:24:16;7.72;;;5.80;;
9667;SDS011;4872;48.316;10.650;2023-09-12T15:26:43;6.15;;;5.53;;
9667;SDS011;4872;48.316;10.650;2023-09-12T15:29:10;6.53;;;5.97;;
9667;SDS011;4872;48.316;10.650;2023-09-12T15:31:36;6.28;;;5.68;;
9667;SDS011;4872;48.316;10.650;2023-09-12T15:34:03;8.38;;;5.72;;
9667;SDS011;4872;48.316;10.650;2023-09-12T15:36:35;9.55;;;6.72;;
9667;SDS011;4872;48.316;10.650;2023-09-12T15:39:07;7.90;;;6.75;;
9667;SDS011;4872;48.316;10.650;2023-09-12T15:41:35;7.40;;;6.55;;
9667;SDS011;4872;48.316;10.650;2023-09-12T15:44:01;8.05;;;6.30;;
9667;SDS011;4872;48.316;10.650;2023-09-12T15:46:29;8.02;;;6.40;;
9667;SDS011;4872;48.316;10.650;2023-09-12T15:48:56;6.97;;;6.38;;
9667;SDS011;4872;48.316;10.650;2023-09-12T15:51:24;6.95;;;5.85;;
9667;SDS011;4872;48.316;10.650;2023-09-12T15:53:51;7.15;;;6.00;;
9667;SDS011;4872;48.316;10.650;2023-09-12T15:56:19;8.68;;;6.15;;
9667;SDS011;4872;48.316;10.650;2023-09-12T15:58:46;7.88;;;6.75;;
9667;SDS011;4872;48.316;10.650;2023-09-12T16:01:13;10.50;;;6.22;;
9667;SDS011;4872;48.316;10.650;2023-09-12T16:03:40;7.63;;;6.20;;
9667;SDS011;4872;48.316;10.650;2023-09-12T16:06:06;8.90;;;6.75;;
9667;SDS011;4872;48.316;10.650;2023-09-12T16:08:33;9.23;;;6.60;;
9667;SDS011;4872;48.316;10.650;2023-09-12T16:11:00;10.75;;;6.30;;
9667;SDS011;4872;48.316;10.650;2023-09-12T16:13:28;10.65;;;6.53;;
9667;SDS011;4872;48.316;10.650;2023-09-12T16:15:55;6.63;;;5.70;;
9667;SDS011;4872;48.316;10.650;2023-09-12T16:18:22;7.43;;;6.65;;
9667;SDS011;4872;48.316;10.650;2023-09-12T16:20:50;8.35;;;7.15;;
9667;SDS011;4872;48.316;10.650;2023-09-12T16:23:17;7.88;;;6.95;;
9667;SDS011;4872;48.316;10.650;2023-09-12T16:25:45;9.00;;;7.22;;
9667;SDS011;4872;48.316;10.650;2023-09-12T16:28:15;8.27;;;7.27;;
9667;SDS011;4872;48.316;10.650;2023-09-12T16:30:44;9.50;;;8.40;;
9667;SDS011;4872;48.316;10.650;2023-09-12T16:33:10;9.13;;;8.23;;
9667;SDS011;4872;48.316;10.650;2023-09-12T16:35:37;8.63;;;7.53;;
9667;SDS011;4872;48.316;10.650;2023-09-12T16:38:04;10.07;;;7.20;;
9667;SDS011;4872;48.316;10.650;2023-09-12T16:40:31;9.30;;;6.40;;
9667;SDS011;4872;48.316;10.650;2023-09-12T16:42:58;7.80;;;6.97;;
9667;SDS011;4872;48.316;10.650;2023-09-12T16:45:24;10.33;;;6.83;;
9667;SDS011;4872;48.316;10.650;2023-09-12T16:47:52;8.30;;;7.20;;
9667;SDS011;4872;48.316;10.650;2023-09-12T16:50:23;9.07;;;6.83;;
9667;SDS011;4872;48.316;10.650;2023-09-12T16:52:51;8.13;;;7.33;;
9667;SDS011;4872;48.316;10.650;2023-09-12T16:55:18;9.27;;;7.83;;
9667;SDS011;4872;48.316;10.650;2023-09-12T16:57:45;10.23;;;7.40;;
9667;SDS011;4872;48.316;10.650;2023-09-12T17:00:14;7.00;;;6.30;;
9667;SDS011;4872;48.316;10.650;2023-09-12T17:02:41;8.77;;;6.57;;
9667;SDS011;4872;48.316;10.650;2023-09-12T17:05:10;8.93;;;7.20;;
9667;SDS011;4872;48.316;10.650;2023-09-12T17:07:37;9.53;;;6.73;;
9667;SDS011;4872;48.316;10.650;2023-09-12T17:10:04;8.77;;;7.87;;
9667;SDS011;4872;48.316;10.650;2023-09-12T17:12:33;8.03;;;7.07;;
9667;SDS011;4872;48.316;10.650;2023-09-12T17:14:59;8.30;;;7.23;;
9667;SDS011;4872;48.316;10.650;2023-09-12T17:17:27;11.23;;;8.13;;
9667;SDS011;4872;48.316;10.650;2023-09-12T17:19:55;12.57;;;8.30;;
9667;SDS011;4872;48.316;10.650;2023-09-12T17:22:23;9.40;;;7.40;;
9667;SDS011;4872;48.316;10.650;2023-09-12T17:24:51;10.57;;;9.47;;
9667;SDS011;4872;48.316;10.650;2023-09-12T17:27:18;11.67;;;8.00;;
9667;SDS011;4872;48.316;10.650;2023-09-12T17:29:44;9.07;;;7.83;;
9667;SDS011;4872;48.316;10.650;2023-09-12T17:32:11;8.97;;;8.17;;
9667;SDS011;4872;48.316;10.650;2023-09-12T17:34:38;8.83;;;7.90;;
9667;SDS011;4872;48.316;10.650;2023-09-12T17:37:06;11.80;;;8.33;;
9667;SDS011;4872;48.316;10.650;2023-09-12T17:39:34;9.07;;;8.17;;
9667;SDS011;4872;48.316;10.650;2023-09-12T17:42:01;9.93;;;8.37;;
9667;SDS011;4872;48.316;10.650;2023-09-12T17:44:29;8.80;;;7.90;;
9667;SDS011;4872;48.316;10.650;2023-09-12T17:46:56;12.13;;;8.20;;
9667;SDS011;4872;48.316;10.650;2023-09-12T17:49:22;8.50;;;7.37;;
9667;SDS011;4872;48.316;10.650;2023-09-12T17:51:50;11.53;;;7.57;;
9667;SDS011;4872;48.316;10.650;2023-09-12T17:54:17;8.60;;;7.60;;
9667;SDS011;4872;48.316;10.650;2023-09-12T17:56:45;8.77;;;7.47;;
9667;SDS011;4872;48.316;10.650;2023-09-12T17:59:12;8.57;;;7.17;;
9667;SDS011;4872;48.316;10.650;2023-09-12T18:01:39;7.53;;;6.67;;
9667;SDS011;4872;48.316;10.650;2023-09-12T18:04:06;10.23;;;7.43;;
9667;SDS011;4872;48.316;10.650;2023-09-12T18:06:32;7.30;;;6.53;;
9667;SDS011;4872;48.316;10.650;2023-09-12T18:09:00;7.93;;;7.13;;
9667;SDS011;4872;48.316;10.650;2023-09-12T18:11:27;7.30;;;6.53;;
9667;SDS011;4872;48.316;10.650;2023-09-12T18:13:56;8.80;;;6.90;;
9667;SDS011;4872;48.316;10.650;2023-09-12T18:16:23;7.63;;;6.50;;
9667;SDS011;4872;48.316;10.650;2023-09-12T18:18:50;7.27;;;6.53;;
9667;SDS011;4872;48.316;10.650;2023-09-12T18:21:16;10.30;;;7.43;;
9667;SDS011;4872;48.316;10.650;2023-09-12T18:23:43;8.33;;;6.67;;
9667;SDS011;4872;48.316;10.650;2023-09-12T18:26:10;7.87;;;6.97;;
9667;SDS011;4872;48.316;10.650;2023-09-12T18:28:38;8.13;;;6.70;;
9667;SDS011;4872;48.316;10.650;2023-09-12T18:31:08;7.63;;;6.63;;
9667;SDS011;4872;48.316;10.650;2023-09-12T18:33:36;9.00;;;7.10;;
9667;SDS011;4872;48.316;10.650;2023-09-12T18:36:03;8.20;;;7.23;;
9667;SDS011;4872;48.316;10.650;2023-09-12T18:38:36;7.67;;;6.97;;
9667;SDS011;4872;48.316;10.650;2023-09-12T18:41:04;9.30;;;6.80;;
9667;SDS011;4872;48.316;10.650;2023-09-12T18:43:31;7.80;;;6.80;;
9667;SDS011;4872;48.316;10.650;2023-09-12T18:45:58;11.30;;;7.10;;
9667;SDS011;4872;48.316;10.650;2023-09-12T18:48:26;11.33;;;8.07;;
9667;SDS011;4872;48.316;10.650;2023-09-12T18:50:54;9.63;;;7.97;;
9667;SDS011;4872;48.316;10.650;2023-09-12T18:53:21;9.57;;;7.80;;
9667;SDS011;4872;48.316;10.650;2023-09-12T18:55:48;8.47;;;7.40;;
9667;SDS011;4872;48.316;10.650;2023-09-12T18:58:15;7.80;;;6.97;;
9667;SDS011;4872;48.316;10.650;2023-09-12T19:00:42;10.20;;;7.67;;
9667;SDS011;4872;48.316;10.650;2023-09-12T19:03:10;8.37;;;7.47;;
9667;SDS011;4872;48.316;10.650;2023-09-12T19:05:40;9.67;;;7.57;;